WEATHER DATA

YESTERDAY
Time Temp. Dewp. Hum. Wind dir Wind speed Wind gust Bar. 1h Prec. 24h Prec.
00:01 10 6.5 79 220 1.1 2.8 1015.3 0.0000 0.0000
00:11 10 6.7 80 215 1.1 2.5 1015.3 0.0000 0.0000
00:21 9.9 6.4 79 220 1.1 1.7 1015.1 0.0000 0.0000
00:31 9.8 6.3 79 216 1.1 1.7 1015 0.0000 0.0000
00:41 9.7 6.4 80 220 1.1 1.9 1015 0.0000 0.0000
00:52 9.6 6.3 80 220 1.1 3.1 1015.1 0.0000 0.0000
01:02 9.6 6.3 80 188 1.4 4.2 1015.3 0.0000 0.0000
01:03 9.5 6.2 80 90 1.1 2.5 1015.7 0.0000 0.0000
01:11 9.6 6.3 80 218 1.4 2.8 1015.4 0.0000 0.0000
01:12 9.5 6.2 80 206 1.1 1.9 1015.6 0.0000 0.0000
01:22 9.4 6.1 80 135 1.1 2.5 1015.6 0.0000 0.0000
01:32 9.6 6.3 80 220 1.1 2.8 1015.6 0.0000 0.0000
01:32 9.3 6.2 81 225 1.1 1.9 1015.5 0.0000 0.0000
01:42 9.6 6.3 80 225 1.1 1.9 1015.7 0.0000 0.0000
01:43 9.3 6.2 81 225 1.1 2.5 1015.6 0.0000 0.0000
02:03 9.2 6.1 81 71 1.1 1.9 1015.4 0.0000 0.0000
02:13 9.2 5.9 80 225 1.1 2.5 1015.3 0.0000 0.0000
02:23 9.1 6 81 225 1.1 1.7 1015.5 0.0000 0.0000
02:33 9 5.9 81 215 1.1 1.9 1015.5 0.0000 0.0000
02:43 9 5.9 81 225 1.1 2.5 1015.4 0.0000 0.0000
02:54 9 5.9 81 135 1.1 3.1 1015.3 0.0000 0.0000
03:04 9 5.9 81 229 1.1 2.8 1015.1 0.0000 0.0000
03:13 8.9 5.8 81 191 1.1 1.7 1015.3 0.0000 0.0000
03:24 9 5.9 81 219 1.1 1.9 1015.5 0.0000 0.0000
03:34 9.1 6.2 82 180 1.1 2.5 1015.6 0.0000 0.0000
03:44 9.2 6.3 82 220 1.1 1.9 1015.6 0.0000 0.0000
03:54 9.1 6.2 82 210 0.6 1.7 1015.6 0.0000 0.0000
04:05 9.1 6.2 82 219 0.6 1.9 1015.9 0.0000 0.0000
04:14 9.1 6.2 82 225 1.1 2.5 1015.9 0.0000 0.0000
04:24 9.1 6.2 82 135 1.1 1.7 1016 0.0000 0.0000
04:34 9.1 6.2 82 198 0.6 1.9 1016.2 0.0000 0.0000
04:45 9.2 6.3 82 219 1.1 2.5 1016.1 0.0000 0.0000
04:55 9.3 6.4 82 204 1.1 2.5 1016.3 0.0000 0.0000
05:04 9.3 6.4 82 221 1.1 2.5 1016.4 0.0000 0.0000
05:15 9.4 6.5 82 203 1.1 1.9 1016.5 0.0000 0.0000
05:25 9.4 6.5 82 219 1.1 1.9 1016.7 0.0000 0.0000
05:35 9.4 6.3 81 135 1.1 2.5 1016.8 0.0000 0.0000
05:45 9.4 6.3 81 180 1.1 2.5 1016.8 0.0000 0.0000
05:56 9.3 6.2 81 194 1.1 1.9 1016.9 0.0000 0.0000
06:05 9.3 6.2 81 215 1.1 2.5 1017.1 0.0000 0.0000
06:15 9.1 6 81 225 0.6 1.9 1017.2 0.0000 0.0000
06:26 9 5.9 81 210 1.1 1.7 1017.3 0.0000 0.0000
06:36 9 5.9 81 225 1.1 2.5 1017.5 0.0000 0.0000
06:46 9 5.7 80 135 1.1 1.9 1017.7 0.0000 0.0000
06:56 9 5.7 80 90 1.1 1.9 1018.1 0.0000 0.0000
07:06 9 5.7 80 153 1.1 2.8 1018.2 0.0000 0.0000
07:16 9 5.7 80 225 1.1 1.7 1018.3 0.0000 0.0000
07:26 9 5.6 79 161 1.1 2.5 1018.4 0.0000 0.0000
07:47 9.3 5.8 79 203 1.1 2.5 1018.8 0.0000 0.0000
07:57 9.6 6.1 79 205 1.1 1.9 1018.9 0.0000 0.0000
08:06 9.7 6.2 79 201 1.1 2.8 1019 0.0000 0.0000
08:17 9.9 6.2 78 205 1.1 2.5 1018.9 0.0000 0.0000
08:27 9.9 6.2 78 198 1.1 1.9 1019 0.0000 0.0000
08:37 9.9 6.1 77 206 1.1 2.5 1019.4 0.0000 0.0000
08:47 9.9 6.1 77 206 1.1 2.5 1019.6 0.0000 0.0000
08:58 10 6.2 77 212 1.1 2.5 1019.5 0.0000 0.0000
09:07 10.3 6.5 77 209 1.4 3.1 1019.5 0.0000 0.0000
09:17 10.3 6.3 76 198 1.1 1.9 1019.6 0.0000 0.0000
09:28 10.5 6.5 76 185 1.1 1.9 1019.5 0.0000 0.0000
09:38 10.7 6.5 75 135 1.1 3.1 1019.6 0.0000 0.0000
09:48 10.7 6.3 74 214 1.1 1.9 1019.8 0.0000 0.0000
09:57 10.8 6.4 74 173 1.1 2.5 1019.7 0.0000 0.0000
10:08 11.3 6.8 74 60 0.6 3.1 1019.7 0.0000 0.0000
10:18 11.6 6.9 73 45 1.1 1.9 1019.7 0.0000 0.0000
10:28 11.8 7.1 73 45 1.1 2.5 1019.6 0.0000 0.0000
10:38 12.3 7.6 73 206 1.1 1.9 1019.7 0.0000 0.0000
10:49 12.1 6.8 70 135 1.1 2.5 1019.7 0.0000 0.0000
10:53 12.1 6.8 70 180 1.1 1.7 1019.7 0.0000 0.0000
11:03 12.5 7.2 70 63 1.1 2.5 1019.6 0.0000 0.0000
11:14 12.7 7.2 69 61 1.1 2.8 1019.6 0.0000 0.0000
11:24 12.3 6.6 68 71 1.1 2.5 1019.8 0.0000 0.0000
11:38 12.1 6.4 68 180 1.1 1.9 1019.7 0.3030 0.3000
11:49 12.1 6.4 68 219 1.1 2.5 1019.5 0.3030 0.3000
11:58 12.3 6.6 68 225 1.1 3.6 1019.4 0.3030 0.3000
12:07 12.5 7 69 228 0.6 3.1 1019.4 0.3030 0.3000
12:17 12.5 6.8 68 236 1.1 2.5 1019.4 0.3030 0.3000
12:27 12.4 6.7 68 229 1.1 2.5 1019.2 0.3030 0.3000
12:37 12.6 6.9 68 230 0.6 2.8 1019.5 0.0000 0.3000
12:48 12.6 6.9 68 229 1.1 2.8 1019.2 0.0000 0.3000
12:58 13.1 7.1 67 235 1.1 2.8 1019.2 0.0000 0.3000
13:08 13.3 7.3 67 227 0.6 1.9 1019.1 0.0000 0.3000
13:17 13.5 7.5 67 229 1.1 1.9 1019.1 0.0000 0.3000
13:28 13.4 7 65 233 0.6 2.5 1019.1 0.0000 0.3000
13:38 13.4 7.2 66 233 0.6 2.8 1019 0.0000 0.3000
13:48 13.4 7.2 66 234 1.1 3.3 1019.1 0.0000 0.3000
13:58 13.2 6.8 65 225 1.1 2.5 1019.1 0.0000 0.3000
14:09 13.2 7 66 228 0.6 1.9 1019.1 0.0000 0.3000
14:18 13 6.8 66 228 1.1 2.5 1019 0.0000 0.3000
14:28 12.9 6.7 66 225 0.6 2.5 1019 0.0000 0.3000
14:39 12.8 6.8 67 229 0.6 2.5 1019 0.0000 0.3000
14:50 12.6 6.6 67 232 1.1 2.8 1019.2 0.0000 0.3000
15:00 12.5 6.8 68 231 1.1 2.5 1019 0.0000 0.3000
15:10 12.4 6.9 69 225 0.6 2.8 1019 0.0000 0.3000
15:20 12.4 6.9 69 233 0.6 2.5 1019 0.0000 0.3000
15:31 12.6 7.1 69 232 1.1 2.5 1019 0.0000 0.3000
15:40 12.5 7 69 230 1.1 3.1 1019 0.0000 0.3000
15:50 12.3 7 70 233 1.1 2.8 1019.1 0.0000 0.3000
16:01 12.3 7 70 229 1.1 1.9 1019.2 0.0000 0.3000
16:11 12.2 6.9 70 233 1.1 2.8 1019.4 0.0000 0.3000
16:21 12.3 7.2 71 231 1.1 2.5 1019.4 0.0000 0.3000
16:31 12.2 7.1 71 235 1.1 2.8 1019.5 0.0000 0.3000
16:41 12.2 7.1 71 227 1.1 2.5 1019.6 0.0000 0.3000
16:51 12.2 7.1 71 225 1.1 1.9 1019.7 0.0000 0.3000
17:01 12.1 7.2 72 230 1.1 2.8 1019.8 0.0000 0.3000
17:12 12.1 7.2 72 235 1.1 3.1 1019.9 0.0000 0.3000
17:32 12 7.1 72 233 1.1 3.3 1020.1 0.0000 0.3000
17:41 12 7.1 72 230 1.1 2.5 1020.2 0.0000 0.3000
17:52 12 7.1 72 231 1.1 3.1 1020.2 0.0000 0.3000
18:02 11.9 7 72 232 1.1 3.1 1020.3 0.0000 0.3000
18:12 11.9 7 72 230 0.6 1.9 1020.5 0.0000 0.3000
18:22 11.9 7.2 73 233 1.1 3.3 1020.6 0.0000 0.3000
18:33 11.8 7.1 73 227 1.1 2.5 1020.8 0.0000 0.3000
18:42 11.8 7.1 73 234 1.1 3.1 1020.8 0.0000 0.3000
18:52 11.8 7.1 73 229 1.1 2.5 1020.8 0.0000 0.3000
19:03 11.8 7.3 74 229 0.6 2.5 1021 0.0000 0.3000
19:13 11.8 7.3 74 227 0.6 1.9 1021 0.0000 0.3000
19:33 11.8 7.3 74 225 1.1 2.5 1021.2 0.0000 0.3000
19:43 11.8 7.3 74 220 1.1 1.9 1021.1 0.0000 0.3000
19:53 11.8 7.5 75 231 1.4 3.1 1021.1 0.0000 0.3000
20:03 11.8 7.5 75 228 1.1 1.9 1021.1 0.0000 0.3000
20:14 11.8 7.5 75 233 1.1 2.8 1021.3 0.0000 0.3000
20:24 11.8 7.5 75 225 1.1 3.1 1021.4 0.0000 0.3000
20:33 11.8 7.7 76 225 1.1 2.5 1021.4 0.0000 0.3000
20:43 11.8 7.7 76 220 1.1 1.7 1021.5 0.0000 0.3000
20:54 11.8 7.7 76 225 1.1 2.8 1021.5 0.0000 0.3000
21:04 11.9 7.8 76 222 1.1 2.8 1021.5 0.0000 0.3000
21:14 11.9 7.8 76 218 1.1 1.9 1021.5 0.0000 0.3000
21:24 11.9 7.8 76 225 1.1 1.9 1021.6 0.0000 0.3000
21:34 11.9 7.8 76 227 1.1 3.1 1021.6 0.0000 0.3000
21:44 11.9 7.8 76 225 1.1 1.9 1021.7 0.0000 0.3000
21:54 11.9 8 77 225 1.1 2.8 1021.7 0.0000 0.3000
22:05 11.9 8 77 225 1.1 2.5 1021.8 0.0000 0.3000
22:15 11.9 8 77 214 1.1 1.9 1021.8 0.0000 0.3000
22:25 11.9 8 77 219 1.1 2.5 1021.8 0.0000 0.3000
22:35 11.9 8.2 78 232 1.1 3.1 1021.8 0.0000 0.3000
22:45 11.8 8.1 78 210 1.1 2.8 1021.8 0.0000 0.3000
22:55 11.8 8.1 78 226 1.1 2.5 1021.8 0.0000 0.3000
23:05 11.7 8 78 225 1.1 2.8 1021.8 0.0000 0.3000
23:16 11.7 8 78 221 1.1 1.9 1021.8 0.0000 0.3000
23:26 11.7 8 78 225 1.1 2.8 1021.7 0.0000 0.3000
23:35 11.7 8.2 79 221 1.1 2.8 1021.8 0.0000 0.3000
23:45 11.7 8.2 79 225 1.1 2.8 1021.8 0.0000 0.3000
23:56 11.7 8.2 79 225 1.1 2.5 1021.8 0.0000

DAY STATISTIC

2020-04-05
TEMPERATURE
AVERAGE
11.0
HIGH
13.5
13:17
LOW
8.9
03:13
PRESSURE
AVERAGE
1018.8
HIGH
1021.8
22:05
LOW
1015.0
00:31
DEWPOINT
AVERAGE
6.8
HIGH
8.2
22:35
LOW
5.6
07:26
HUMIDITY
AVERAGE
75
HIGH
82
03:34
LOW
65
13:28
WIND SPEED
AVERAGE
1.0
HIGH
1.4
01:02
WIND GUST
AVERAGE
2.4
HIGH
4.2
01:02
WIND DIRECTION
PREVAILING
SW
76.2%
N
0.0
NE
3.5
E
2.8
SE
5.6
S
11.9
SW
76.2
W
0.0
NW
0.0
PRECIPITATION
RAIN HOUR
0.3
RAIN DAY
0.3
TEMPERATURE (°C)
LOW
8.9
HIGH
13.5
AVERAGE
11.0
PRESSURE (hpa)
LOW
1015.0
HIGH
1021.8
AVERAGE
1018.8
DEVICE